Time;durP1;ratioP1;P1;durP2;ratioP2;P2;SDS_P1;SDS_P2;PMS_P1;PMS_P2;Temp;Humidity;BMP_temperature;BMP_pressure;BME280_temperature;BME280_humidity;BME280_pressure;Samples;Min_cycle;Max_cycle;Signal;HPM_P1;HPM_P2
2021/09/25 00:00:13;;;;;;;236.30;86.43;;;;;;;15.39;76.12;99172.06;5045147;28;20495;-71
2021/09/25 00:02:41;;;;;;;239.30;89.63;;;;;;;15.37;75.48;99166.00;5027729;28;20465;-71
2021/09/25 00:05:10;;;;;;;239.90;96.27;;;;;;;15.44;76.05;99177.81;5029636;28;20541;-71
2021/09/25 00:07:38;;;;;;;228.57;78.63;;;;;;;15.50;74.83;99190.63;5028221;28;20453;-71
2021/09/25 00:10:08;;;;;;;237.73;96.63;;;;;;;15.45;74.75;99174.09;5028469;28;20474;-71
2021/09/25 00:12:37;;;;;;;231.10;83.07;;;;;;;15.51;75.49;99186.91;5044688;28;20467;-72
2021/09/25 00:15:06;;;;;;;226.30;81.20;;;;;;;15.36;74.65;99158.91;5029693;28;20877;-71
2021/09/25 00:17:34;;;;;;;209.83;67.37;;;;;;;15.48;73.91;99176.44;5029194;28;20497;-71
2021/09/25 00:20:03;;;;;;;213.70;75.83;;;;;;;15.52;73.82;99188.59;5029311;28;20476;-71
2021/09/25 00:22:31;;;;;;;217.07;77.30;;;;;;;15.47;74.23;99183.72;5044613;28;21212;-71
2021/09/25 00:25:01;;;;;;;218.87;76.70;;;;;;;15.55;73.60;99199.06;5029246;28;20461;-70
2021/09/25 00:27:30;;;;;;;223.03;86.27;;;;;;;15.39;73.63;99167.50;5029510;28;20459;-71
2021/09/25 00:30:02;;;;;;;219.10;81.57;;;;;;;15.60;72.97;99199.41;5029546;28;20473;-71
2021/09/25 00:32:30;;;;;;;219.13;78.53;;;;;;;15.60;74.08;99202.13;5023922;28;20894;-71
2021/09/25 00:34:59;;;;;;;214.70;75.17;;;;;;;15.63;72.20;99207.22;5020316;28;20547;-70
2021/09/25 00:37:27;;;;;;;221.87;83.97;;;;;;;15.62;71.79;99208.22;5029045;28;20519;-71
2021/09/25 00:39:55;;;;;;;217.27;75.00;;;;;;;15.63;73.45;99219.91;5044794;28;20475;-71
2021/09/25 00:42:23;;;;;;;216.57;76.90;;;;;;;15.62;72.11;99213.66;5029509;28;20932;-70
2021/09/25 00:44:53;;;;;;;224.83;86.47;;;;;;;15.65;71.60;99228.69;5029391;28;20568;-70
2021/09/25 00:47:21;;;;;;;231.70;94.50;;;;;;;15.61;72.12;99222.78;5044193;28;20465;-70
2021/09/25 00:49:49;;;;;;;230.17;84.47;;;;;;;15.61;71.53;99225.50;5029321;28;20470;-71
2021/09/25 00:52:17;;;;;;;232.07;84.00;;;;;;;15.61;71.51;99233.59;5029413;28;20465;-69
2021/09/25 00:54:45;;;;;;;220.37;69.57;;;;;;;15.64;70.50;99227.00;5028681;28;20457;-70
2021/09/25 00:57:13;;;;;;;214.00;61.33;;;;;;;15.60;70.67;99231.88;5028452;28;20489;-72
2021/09/25 00:59:42;;;;;;;210.10;60.17;;;;;;;15.64;71.28;99230.56;5026809;28;20441;-70
2021/09/25 01:02:16;;;;;;;210.73;59.70;;;;;;;15.58;72.54;99233.94;5027471;28;20892;-70
2021/09/25 01:04:45;;;;;;;242.67;101.10;;;;;;;15.61;69.78;99247.13;5025530;28;20480;-71
2021/09/25 01:07:14;;;;;;;252.33;104.17;;;;;;;15.64;68.87;99254.91;5008587;28;20431;-71
2021/09/25 01:09:43;;;;;;;247.87;106.23;;;;;;;15.66;70.47;99241.19;5026998;28;20435;-70
2021/09/25 01:12:11;;;;;;;247.97;110.73;;;;;;;15.62;71.28;99259.66;5011406;28;20535;-70
2021/09/25 01:14:39;;;;;;;244.87;103.17;;;;;;;15.62;71.26;99262.34;5023290;28;20826;-70
2021/09/25 01:17:09;;;;;;;251.23;110.50;;;;;;;15.62;69.20;99259.66;5029972;28;20492;-70
2021/09/25 01:19:38;;;;;;;257.30;117.67;;;;;;;15.63;71.00;99261.34;5030009;28;20464;-70
2021/09/25 01:22:08;;;;;;;246.50;100.60;;;;;;;15.60;70.01;99264.38;5024304;28;20932;-70
2021/09/25 01:24:37;;;;;;;231.10;87.50;;;;;;;15.55;72.07;99272.13;5030484;28;20505;-70
2021/09/25 01:27:07;;;;;;;252.13;112.77;;;;;;;15.52;71.00;99272.47;5031866;28;20873;-70
2021/09/25 01:29:35;;;;;;;253.90;115.87;;;;;;;15.55;69.73;99282.94;5031805;28;20945;-70
2021/09/25 01:32:05;;;;;;;240.97;100.23;;;;;;;15.49;68.83;99283.66;5029856;28;20835;-70
2021/09/25 01:34:34;;;;;;;243.17;101.23;;;;;;;15.45;69.85;99287.72;5045948;28;20470;-71
2021/09/25 01:37:02;;;;;;;230.83;91.00;;;;;;;15.42;69.50;99293.47;5031708;28;20494;-70
2021/09/25 01:39:32;;;;;;;246.40;106.47;;;;;;;15.37;68.63;99280.47;5023708;28;20453;-70
2021/09/25 01:42:02;;;;;;;247.07;109.10;;;;;;;15.38;68.60;99303.78;5032041;28;21153;-71
2021/09/25 01:44:30;;;;;;;224.30;82.70;;;;;;;15.36;68.02;99300.41;5031477;28;20459;-70
2021/09/25 01:47:00;;;;;;;244.90;109.60;;;;;;;15.35;67.93;99303.28;5031723;28;21051;-70
2021/09/25 01:49:45;;;;;;;117.83;89.23;;;;;;;15.36;68.11;99302.28;5031137;28;20448;-71
2021/09/25 01:52:14;;;;;;;102.57;94.17;;;;;;;15.36;68.97;99299.56;5030149;28;20455;-70
2021/09/25 01:54:43;;;;;;;103.17;96.17;;;;;;;15.38;69.21;99300.25;5031047;28;20543;-70
2021/09/25 01:57:12;;;;;;;94.27;88.23;;;;;;;15.34;67.67;99296.19;5031337;28;20479;-70
2021/09/25 01:59:41;;;;;;;89.63;77.57;;;;;;;15.41;67.72;99313.44;5030972;28;20455;-70
2021/09/25 02:02:09;;;;;;;107.13;98.90;;;;;;;15.26;68.25;99290.75;5030384;28;20481;-70
2021/09/25 02:04:38;;;;;;;84.00;77.20;;;;;;;15.36;67.30;99311.22;5029831;28;20466;-70
2021/09/25 02:07:07;;;;;;;88.33;82.60;;;;;;;15.35;68.27;99317.66;5029928;28;21020;-70
2021/09/25 02:09:35;;;;;;;106.97;98.27;;;;;;;15.32;67.95;99320.72;5030689;28;20454;-71
2021/09/25 02:12:05;;;;;;;83.27;75.47;;;;;;;15.25;68.42;99313.41;5031398;28;20455;-70
2021/09/25 02:14:33;;;;;;;80.37;50.67;;;;;;;15.22;67.40;99315.44;5030695;28;20576;-71
2021/09/25 02:17:01;;;;;;;90.23;84.40;;;;;;;15.05;67.80;99304.81;5030948;28;21028;-71
2021/09/25 02:19:29;;;;;;;61.20;57.03;;;;;;;15.05;68.93;99327.28;5030820;28;20462;-70
2021/09/25 02:21:57;;;;;;;61.23;42.70;;;;;;;15.00;69.97;99335.06;5030671;28;20522;-71
2021/09/25 02:24:26;;;;;;;80.33;59.33;;;;;;;14.92;67.58;99335.03;5030920;28;20477;-70
2021/09/25 02:26:54;;;;;;;86.53;78.17;;;;;;;14.87;67.07;99331.97;5030527;28;20959;-70
2021/09/25 02:29:23;;;;;;;115.03;93.80;;;;;;;14.78;68.37;99338.38;5030215;28;20453;-70
2021/09/25 02:31:52;;;;;;;332.13;57.77;;;;;;;14.74;69.34;99331.63;5029213;28;20527;-70
2021/09/25 02:34:20;;;;;;;53.83;48.47;;;;;;;14.63;69.88;99340.88;5029827;28;20957;-70
2021/09/25 02:36:48;;;;;;;108.10;86.83;;;;;;;14.64;69.62;99345.25;5030520;28;20454;-70
2021/09/25 02:39:16;;;;;;;77.93;69.77;;;;;;;14.52;70.32;99360.09;5030278;28;20981;-70
2021/09/25 02:41:46;;;;;;;61.27;57.13;;;;;;;14.45;70.96;99362.59;5045697;28;20462;-71
2021/09/25 02:44:14;;;;;;;78.37;67.97;;;;;;;14.42;71.16;99368.31;5045370;28;20462;-70
2021/09/25 02:46:44;;;;;;;46.23;43.03;;;;;;;14.37;71.22;99367.91;5030061;28;20726;-70
2021/09/25 02:49:12;;;;;;;73.57;68.77;;;;;;;14.36;69.89;99363.53;5030243;28;20465;-70
2021/09/25 02:51:40;;;;;;;97.90;90.73;;;;;;;14.33;71.22;99366.56;5030313;28;20450;-70
2021/09/25 02:54:08;;;;;;;68.67;63.97;;;;;;;14.26;71.64;99373.63;5029958;28;20936;-70
2021/09/25 02:56:36;;;;;;;104.53;97.43;;;;;;;14.18;71.81;99379.84;5030096;28;21052;-70
2021/09/25 02:59:05;;;;;;;98.80;92.40;;;;;;;14.16;72.20;99391.81;5030485;28;20502;-70
2021/09/25 03:01:46;;;;;;;54.23;50.53;;;;;;;14.12;71.98;99395.84;5029907;28;21025;-70
2021/09/25 03:04:14;;;;;;;46.17;42.57;;;;;;;14.08;71.46;99389.91;5043934;28;20464;-70
2021/09/25 03:06:42;;;;;;;71.93;66.80;;;;;;;14.06;71.03;99401.84;5044609;28;20508;-70
2021/09/25 03:09:11;;;;;;;63.33;58.23;;;;;;;14.03;71.18;99402.16;5026683;28;20980;-70
2021/09/25 03:11:39;;;;;;;106.60;99.93;;;;;;;13.91;71.69;99407.00;5042222;28;20441;-70
2021/09/25 03:14:07;;;;;;;45.83;42.63;;;;;;;13.70;72.67;99388.44;5029346;28;20462;-70
2021/09/25 03:16:35;;;;;;;66.20;61.83;;;;;;;13.80;72.70;99409.97;5028728;28;21007;-70
2021/09/25 03:19:04;;;;;;;79.13;74.07;;;;;;;13.74;72.09;99411.41;5029154;28;20953;-70
2021/09/25 03:21:33;;;;;;;73.80;69.00;;;;;;;13.68;72.58;99418.28;5028536;28;20569;-70
2021/09/25 03:24:01;;;;;;;78.03;73.00;;;;;;;13.65;72.99;99436.63;5028305;28;20470;-70
2021/09/25 03:26:29;;;;;;;77.43;71.63;;;;;;;13.64;72.58;99424.16;5030210;28;20477;-70
2021/09/25 03:28:57;;;;;;;77.40;71.70;;;;;;;13.57;73.31;99428.50;5029565;28;20879;-70
2021/09/25 03:31:25;;;;;;;83.17;76.03;;;;;;;13.49;72.23;99429.28;5028466;28;20463;-70
2021/09/25 03:33:54;;;;;;;67.77;62.83;;;;;;;13.49;72.67;99433.81;5031389;28;20461;-71
2021/09/25 03:36:23;;;;;;;52.23;48.60;;;;;;;13.34;73.13;99431.66;5039062;28;20519;-71
2021/09/25 03:38:51;;;;;;;78.87;73.03;;;;;;;13.37;73.68;99438.59;5027191;28;20517;-70
2021/09/25 03:41:19;;;;;;;41.13;37.77;;;;;;;13.25;73.37;99424.50;5029028;28;20452;-70
2021/09/25 03:43:50;;;;;;;65.33;60.63;;;;;;;13.34;72.81;99445.13;5038927;28;20466;-69
2021/09/25 03:46:18;;;;;;;61.27;56.30;;;;;;;13.24;73.32;99457.00;5026090;28;20878;-70
2021/09/25 03:48:47;;;;;;;319.50;55.77;;;;;;;13.25;72.46;99456.84;5026328;28;20862;-70
2021/09/25 03:51:15;;;;;;;68.93;63.40;;;;;;;13.23;72.22;99453.47;5028276;28;20941;-71
2021/09/25 03:53:45;;;;;;;78.07;71.73;;;;;;;13.22;72.58;99453.59;5026892;28;20431;-70
2021/09/25 03:56:13;;;;;;;43.63;40.23;;;;;;;13.05;73.13;99437.22;5028115;28;20877;-70
2021/09/25 03:58:43;;;;;;;45.83;42.50;;;;;;;12.81;73.99;99414.53;5028621;28;20560;-70
2021/09/25 04:01:12;;;;;;;38.47;35.73;;;;;;;13.05;72.75;99466.03;5028910;28;20563;-70
2021/09/25 04:03:41;;;;;;;36.17;33.57;;;;;;;12.92;73.81;99457.47;5028730;28;20492;-70
2021/09/25 04:06:10;;;;;;;36.17;33.57;;;;;;;12.96;73.51;99488.50;5029029;28;20450;-70
2021/09/25 04:08:38;;;;;;;45.13;41.93;;;;;;;12.91;74.24;99480.00;5028861;28;20445;-70
2021/09/25 04:11:07;;;;;;;35.80;33.20;;;;;;;12.87;73.67;99489.41;5029076;28;20442;-70
2021/09/25 04:13:35;;;;;;;38.70;35.87;;;;;;;12.82;73.52;99491.66;5044227;28;20958;-70
2021/09/25 04:16:04;;;;;;;43.13;40.10;;;;;;;12.79;74.15;99489.28;5028758;28;20495;-69
2021/09/25 04:18:32;;;;;;;51.63;48.03;;;;;;;12.48;75.06;99462.63;5028790;28;20487;-70
2021/09/25 04:21:00;;;;;;;66.10;61.73;;;;;;;12.65;75.61;99496.84;5028470;28;20558;-70
2021/09/25 04:23:28;;;;;;;174.03;90.40;;;;;;;12.57;75.83;99493.22;5027613;28;20472;-70
2021/09/25 04:25:56;;;;;;;214.07;91.27;;;;;;;12.39;75.23;99467.03;5031678;28;20459;-69
2021/09/25 04:28:26;;;;;;;171.63;90.37;;;;;;;12.56;76.05;99496.91;5029140;28;20444;-69
2021/09/25 04:30:54;;;;;;;175.40;71.07;;;;;;;12.54;75.20;99504.25;5022470;28;20469;-70
2021/09/25 04:33:23;;;;;;;197.97;99.83;;;;;;;12.56;75.83;99505.84;5028745;28;20448;-70
2021/09/25 04:35:51;;;;;;;100.77;91.80;;;;;;;12.51;75.00;99505.41;5028274;28;20451;-69
2021/09/25 04:38:19;;;;;;;88.43;79.60;;;;;;;12.56;75.70;99519.31;5029102;28;20848;-70
2021/09/25 04:40:47;;;;;;;162.23;100.63;;;;;;;12.44;76.25;99509.69;5027936;28;20460;-69
2021/09/25 04:43:15;;;;;;;111.33;78.07;;;;;;;12.57;76.07;99523.69;5043846;28;20467;-70
2021/09/25 04:45:45;;;;;;;114.30;104.50;;;;;;;12.50;76.68;99525.25;5028339;28;20931;-70
2021/09/25 04:48:13;;;;;;;87.43;81.10;;;;;;;12.15;75.99;99465.84;5022286;28;20461;-70
2021/09/25 04:50:41;;;;;;;58.70;54.40;;;;;;;12.51;75.98;99532.34;5022845;28;20471;-70
2021/09/25 04:53:13;;;;;;;91.43;69.00;;;;;;;12.48;74.93;99532.63;5017023;28;20463;-70
2021/09/25 04:55:41;;;;;;;73.67;66.37;;;;;;;12.54;74.80;99537.41;5032046;28;21001;-70
2021/09/25 04:58:10;;;;;;;81.40;71.00;;;;;;;12.44;74.56;99528.53;5032207;28;20449;-70
2021/09/25 05:00:38;;;;;;;81.50;76.07;;;;;;;12.46;75.20;99528.38;5030826;28;20451;-70
2021/09/25 05:03:08;;;;;;;78.83;72.00;;;;;;;12.54;74.77;99550.88;5047275;28;20494;-70
2021/09/25 05:05:36;;;;;;;81.67;73.43;;;;;;;12.56;73.88;99548.06;5047310;28;20529;-70
2021/09/25 05:08:05;;;;;;;111.67;67.80;;;;;;;12.52;75.15;99560.09;5031862;28;21246;-70
2021/09/25 05:10:33;;;;;;;41.00;38.10;;;;;;;12.53;75.02;99567.19;5032036;28;20836;-70
2021/09/25 05:13:01;;;;;;;197.63;82.43;;;;;;;12.53;74.81;99570.72;5031803;28;20451;-69
2021/09/25 05:15:29;;;;;;;64.47;54.97;;;;;;;12.59;74.84;99572.88;5047127;28;20986;-69
2021/09/25 05:17:57;;;;;;;84.83;77.43;;;;;;;12.67;74.10;99580.22;5032160;28;20970;-69
2021/09/25 05:20:27;;;;;;;67.33;62.83;;;;;;;12.56;74.68;99556.16;5031428;28;20488;-70
2021/09/25 05:22:55;;;;;;;50.57;47.07;;;;;;;12.79;74.35;99580.88;5047065;28;20468;-69
2021/09/25 05:25:23;;;;;;;108.13;54.43;;;;;;;12.85;73.98;99596.44;5046690;28;20463;-69
2021/09/25 05:27:52;;;;;;;86.57;44.40;;;;;;;12.89;74.73;99596.03;5027689;28;20552;-70
2021/09/25 05:30:20;;;;;;;40.17;37.27;;;;;;;13.00;74.01;99603.06;5030245;28;21001;-70
2021/09/25 05:32:48;;;;;;;71.77;42.10;;;;;;;13.06;75.05;99603.34;5029508;28;20457;-70
2021/09/25 05:35:16;;;;;;;44.10;40.97;;;;;;;13.07;74.60;99586.16;5029780;28;20453;-70
2021/09/25 05:37:46;;;;;;;272.37;55.50;;;;;;;13.23;74.37;99611.69;5029621;28;20440;-70
2021/09/25 05:40:15;;;;;;;39.77;36.87;;;;;;;13.24;74.45;99603.44;5028428;28;20492;-70
2021/09/25 05:42:43;;;;;;;45.77;42.73;;;;;;;13.40;74.38;99618.97;5026793;28;20981;-70
2021/09/25 05:45:12;;;;;;;46.83;43.70;;;;;;;13.47;75.15;99616.50;5029566;28;20249;-69
2021/09/25 05:47:40;;;;;;;42.97;39.87;;;;;;;13.54;74.45;99621.16;5029123;28;20874;-70
2021/09/25 05:50:09;;;;;;;38.57;35.80;;;;;;;13.36;74.17;99567.16;5027498;28;20468;-70
2021/09/25 05:52:38;;;;;;;42.10;39.20;;;;;;;13.76;73.48;99622.56;5028268;28;20457;-70
2021/09/25 05:55:09;;;;;;;44.50;41.33;;;;;;;13.87;73.31;99625.06;5028510;28;20455;-70
2021/09/25 05:57:43;;;;;;;41.80;38.93;;;;;;;14.05;72.09;99637.72;5028841;28;20469;-71
2021/09/25 06:00:12;;;;;;;42.87;39.93;;;;;;;13.92;72.67;99609.28;5043565;28;20493;-72
2021/09/25 06:02:42;;;;;;;44.83;41.73;;;;;;;14.21;72.42;99641.44;5025822;28;20928;-70
2021/09/25 06:05:12;;;;;;;65.30;61.00;;;;;;;14.36;72.76;99646.28;5029587;28;20942;-71
2021/09/25 06:07:40;;;;;;;38.53;35.73;;;;;;;14.52;72.14;99660.84;5029140;28;20485;-71
2021/09/25 06:10:10;;;;;;;37.53;34.83;;;;;;;14.67;71.47;99654.84;5029369;28;20449;-70
2021/09/25 06:12:38;;;;;;;39.60;36.77;;;;;;;14.67;70.46;99638.63;5028487;28;20457;-71
2021/09/25 06:15:07;;;;;;;39.43;36.60;;;;;;;14.93;70.76;99665.69;5029185;28;20965;-71
2021/09/25 06:17:38;;;;;;;48.07;44.63;;;;;;;14.84;70.46;99643.16;5044194;28;21011;-71
2021/09/25 06:20:10;;;;;;;46.13;42.87;;;;;;;15.14;69.94;99658.91;5044087;28;20892;-70
2021/09/25 06:22:39;;;;;;;38.20;35.43;;;;;;;15.36;68.91;99679.16;5041080;28;20474;-71
2021/09/25 06:25:09;;;;;;;44.70;41.53;;;;;;;15.44;68.73;99678.34;5027521;28;20818;-71
2021/09/25 06:27:38;;;;;;;54.63;50.70;;;;;;;15.65;67.31;99688.81;5043822;28;20470;-71
2021/09/25 06:30:08;;;;;;;43.70;40.60;;;;;;;15.83;66.51;99692.25;5028746;28;20447;-71
2021/09/25 06:32:36;;;;;;;53.53;49.83;;;;;;;15.88;67.04;99694.47;5027175;28;20982;-70
2021/09/25 06:35:06;;;;;;;59.37;55.33;;;;;;;16.06;65.34;99697.91;5027523;28;20466;-70
2021/09/25 06:37:34;;;;;;;91.07;84.27;;;;;;;16.06;65.60;99696.06;5028192;28;21063;-71
2021/09/25 06:40:03;;;;;;;64.43;60.10;;;;;;;16.01;65.94;99682.16;5028804;28;20986;-71
2021/09/25 06:42:33;;;;;;;46.00;42.77;;;;;;;16.29;65.14;99703.56;5028185;28;20452;-71
2021/09/25 06:45:01;;;;;;;50.43;46.87;;;;;;;16.45;64.20;99700.88;5028445;28;20964;-73
2021/09/25 06:47:29;;;;;;;62.13;57.97;;;;;;;16.57;65.22;99718.53;5027673;28;20468;-72
2021/09/25 06:49:57;;;;;;;52.70;49.03;;;;;;;16.65;64.42;99709.53;5042850;28;20510;-72
2021/09/25 06:52:25;;;;;;;53.87;50.10;;;;;;;16.92;63.08;99722.81;5042542;28;20463;-72
2021/09/25 06:54:54;;;;;;;52.53;48.87;;;;;;;16.93;63.29;99729.94;5025340;28;20460;-72
2021/09/25 06:57:22;;;;;;;53.20;49.50;;;;;;;17.15;62.05;99744.69;5025942;28;20459;-72
2021/09/25 06:59:53;;;;;;;46.17;42.87;;;;;;;17.35;61.01;99732.41;5025845;28;20894;-71
2021/09/25 07:02:22;;;;;;;53.80;49.97;;;;;;;17.22;59.71;99744.84;5028207;28;20463;-72
2021/09/25 07:04:50;;;;;;;52.17;48.57;;;;;;;17.40;59.95;99742.75;5026448;28;20490;-72
2021/09/25 07:07:24;;;;;;;47.80;44.43;;;;;;;17.28;58.20;99717.84;5041841;28;20457;-71
2021/09/25 07:09:52;;;;;;;334.77;62.90;;;;;;;17.40;59.10;99748.19;5026830;28;21164;-71
2021/09/25 07:12:20;;;;;;;73.63;68.67;;;;;;;17.45;59.56;99740.38;5026363;28;20795;-72
2021/09/25 07:14:49;;;;;;;38.43;35.73;;;;;;;17.54;58.82;99749.34;5024789;28;20962;-73
2021/09/25 07:17:18;;;;;;;46.70;43.23;;;;;;;17.62;58.85;99750.19;5027082;28;21168;-71
2021/09/25 07:19:46;;;;;;;59.83;55.80;;;;;;;17.52;57.97;99724.25;5042713;28;20500;-71
2021/09/25 07:22:20;;;;;;;63.03;57.00;;;;;;;17.59;56.87;99753.25;5043409;28;20464;-72
2021/09/25 07:24:53;;;;;;;53.40;49.70;;;;;;;17.75;57.34;99765.09;5026556;28;20817;-72
2021/09/25 07:27:22;;;;;;;66.87;62.40;;;;;;;17.77;57.20;99768.53;5027205;28;20816;-72
2021/09/25 07:29:50;;;;;;;59.77;55.70;;;;;;;18.03;56.82;99777.22;5023895;28;20966;-72
2021/09/25 07:32:20;;;;;;;262.30;59.87;;;;;;;17.95;56.75;99783.56;5025975;28;20449;-72
2021/09/25 07:34:49;;;;;;;72.77;67.93;;;;;;;17.84;55.77;99762.22;5025272;28;20685;-72
2021/09/25 07:37:17;;;;;;;65.47;61.10;;;;;;;17.92;55.35;99785.78;5024996;28;20454;-72
2021/09/25 07:39:46;;;;;;;68.23;63.70;;;;;;;17.89;54.54;99797.84;5024911;28;20454;-72
2021/09/25 07:42:14;;;;;;;60.13;56.03;;;;;;;17.82;54.69;99801.44;5024512;28;20521;-72
2021/09/25 07:44:42;;;;;;;58.50;54.50;;;;;;;17.65;54.23;99773.41;5027120;28;21179;-72
2021/09/25 07:47:10;;;;;;;66.30;61.90;;;;;;;17.88;55.67;99808.88;5025530;28;20465;-72
2021/09/25 07:49:40;;;;;;;56.60;52.40;;;;;;;18.02;54.01;99813.56;5026134;28;20457;-72
2021/09/25 07:52:08;;;;;;;73.90;67.50;;;;;;;17.84;53.31;99808.38;5025028;28;20463;-72
2021/09/25 07:54:36;;;;;;;80.90;72.50;;;;;;;17.82;53.29;99817.72;5040658;28;20460;-72
2021/09/25 07:57:04;;;;;;;63.27;59.00;;;;;;;17.64;53.40;99816.03;5025635;28;20986;-73
2021/09/25 07:59:32;;;;;;;59.67;55.60;;;;;;;17.59;52.95;99793.97;5038624;28;21057;-72
2021/09/25 08:02:01;;;;;;;68.60;54.10;;;;;;;17.79;53.28;99835.22;5026553;28;20474;-72
2021/09/25 08:04:29;;;;;;;59.90;55.80;;;;;;;17.60;52.41;99805.69;5026907;28;20900;-72
2021/09/25 08:06:59;;;;;;;66.33;61.90;;;;;;;17.70;53.25;99830.81;5026946;28;20483;-72
2021/09/25 08:09:27;;;;;;;43.60;40.40;;;;;;;17.62;52.65;99841.66;5025492;28;20515;-71
2021/09/25 08:11:55;;;;;;;44.43;41.27;;;;;;;17.53;53.44;99846.25;5028169;28;20455;-71
2021/09/25 08:14:23;;;;;;;55.17;51.37;;;;;;;17.41;51.99;99850.31;5020961;28;21505;-72
2021/09/25 08:16:51;;;;;;;52.20;48.60;;;;;;;17.51;53.18;99859.16;5023107;28;20844;-72
2021/09/25 08:19:20;;;;;;;53.20;49.03;;;;;;;17.12;52.58;99833.69;5023452;28;20947;-71
2021/09/25 08:21:48;;;;;;;68.23;63.47;;;;;;;16.87;51.14;99827.41;5023141;28;20495;-71
2021/09/25 08:24:18;;;;;;;59.67;55.33;;;;;;;17.23;52.93;99879.50;5026271;28;20946;-72
2021/09/25 08:26:46;;;;;;;53.03;49.40;;;;;;;17.27;52.08;99879.00;5025461;28;20452;-72
2021/09/25 08:29:15;;;;;;;66.27;61.80;;;;;;;17.32;52.92;99897.47;5026445;28;20451;-71
2021/09/25 08:31:43;;;;;;;72.63;67.53;;;;;;;17.37;53.13;99895.09;5025313;28;20451;-71
2021/09/25 08:34:13;;;;;;;66.20;61.67;;;;;;;17.42;52.40;99906.31;5041405;28;20499;-71
2021/09/25 08:36:43;;;;;;;59.17;52.93;;;;;;;17.25;52.85;99875.59;5025443;28;20455;-71
2021/09/25 08:39:12;;;;;;;49.57;46.10;;;;;;;17.49;52.52;99915.50;5042185;28;21077;-70
2021/09/25 08:41:42;;;;;;;58.30;54.27;;;;;;;17.33;51.92;99926.31;5039805;28;21069;-70
2021/09/25 08:44:12;;;;;;;59.20;55.07;;;;;;;17.25;51.49;99929.03;5028176;28;20455;-71
2021/09/25 08:46:41;;;;;;;64.37;59.97;;;;;;;17.23;51.73;99928.34;5028663;28;20444;-71
2021/09/25 08:49:10;;;;;;;64.00;57.67;;;;;;;17.10;51.76;99926.09;5026592;28;20696;-72
2021/09/25 08:51:38;;;;;;;79.17;71.20;;;;;;;17.12;51.82;99942.22;5023286;28;20463;-71
2021/09/25 08:54:06;;;;;;;69.07;61.23;;;;;;;17.12;51.33;99934.91;5040875;28;20459;-72
2021/09/25 08:56:34;;;;;;;46.73;43.43;;;;;;;17.31;51.70;99942.78;5040550;28;20464;-71
2021/09/25 08:59:05;;;;;;;45.33;42.13;;;;;;;17.32;51.38;99941.75;5023891;28;20464;-70
2021/09/25 09:01:34;;;;;;;48.23;44.87;;;;;;;17.33;51.67;99953.47;5022997;28;20984;-70
2021/09/25 09:04:05;;;;;;;59.10;54.77;;;;;;;17.15;51.04;99947.34;5025574;28;20947;-71
2021/09/25 09:06:37;;;;;;;54.87;51.07;;;;;;;17.26;51.26;99952.44;5025204;28;20468;-70
2021/09/25 09:09:08;;;;;;;50.23;46.73;;;;;;;17.23;50.81;99958.19;5027113;28;20455;-70
2021/09/25 09:11:42;;;;;;;63.20;58.67;;;;;;;17.20;50.28;99959.38;5025502;28;20488;-70
2021/09/25 09:14:16;;;;;;;320.13;49.83;;;;;;;17.18;51.11;99952.44;5023232;28;20455;-70
2021/09/25 09:16:55;;;;;;;61.33;54.70;;;;;;;17.24;51.09;99941.75;5025860;28;20217;-71
2021/09/25 09:19:24;;;;;;;55.47;49.97;;;;;;;17.34;51.52;99966.00;5025305;28;20933;-71
2021/09/25 09:21:52;;;;;;;60.57;53.97;;;;;;;17.46;50.94;99961.13;5026655;28;20549;-70
2021/09/25 09:24:20;;;;;;;202.03;69.70;;;;;;;17.55;49.45;99969.13;5025099;28;20945;-71
2021/09/25 09:26:48;;;;;;;206.43;59.70;;;;;;;17.47;49.32;99969.13;5024633;28;21078;-71
2021/09/25 09:29:19;;;;;;;126.90;54.93;;;;;;;17.52;49.83;99974.88;5025199;28;20475;-70
2021/09/25 09:31:56;;;;;;;292.00;64.03;;;;;;;17.54;49.48;99953.84;5024580;28;20927;-70
2021/09/25 09:34:35;;;;;;;64.87;57.80;;;;;;;17.63;49.75;99982.69;5021918;28;20286;-69
2021/09/25 09:37:12;;;;;;;55.70;50.30;;;;;;;17.72;49.53;99985.44;5025230;28;20498;-69
2021/09/25 09:39:40;;;;;;;61.70;56.20;;;;;;;17.51;48.23;99956.03;5025965;28;20467;-69
2021/09/25 09:42:08;;;;;;;108.93;100.17;;;;;;;17.70;48.82;99993.75;5018605;28;20495;-67
2021/09/25 09:44:38;;;;;;;76.87;71.77;;;;;;;17.72;48.68;99997.16;5029163;28;20473;-68
2021/09/25 09:47:08;;;;;;;346.60;66.27;;;;;;;17.73;49.27;99987.97;5031486;28;20468;-68
2021/09/25 09:49:41;;;;;;;71.83;67.07;;;;;;;17.88;48.20;100012.63;5029108;28;20219;-68
2021/09/25 09:52:11;;;;;;;72.93;67.50;;;;;;;17.93;47.62;100013.81;5029186;28;20501;-68
2021/09/25 09:54:41;;;;;;;337.50;72.47;;;;;;;17.91;48.41;100020.44;5030982;28;20840;-68
2021/09/25 09:57:12;;;;;;;77.37;72.33;;;;;;;17.81;48.27;100000.75;5031502;28;20220;-68
2021/09/25 09:59:42;;;;;;;77.23;70.80;;;;;;;17.97;47.03;100017.03;5031113;28;20935;-67
2021/09/25 10:02:11;;;;;;;66.17;61.73;;;;;;;18.10;48.41;100038.28;5022971;28;20511;-67
2021/09/25 10:04:39;;;;;;;66.73;62.27;;;;;;;18.11;47.98;100040.84;5025003;28;20465;-67
2021/09/25 10:07:08;;;;;;;60.93;56.80;;;;;;;18.11;47.44;100029.97;5025330;28;20539;-68
2021/09/25 10:09:38;;;;;;;92.10;65.80;;;;;;;18.13;47.10;100038.78;5043404;28;20560;-67
2021/09/25 10:12:09;;;;;;;111.17;84.43;;;;;;;18.01;46.42;100018.41;5028705;28;20957;-68
2021/09/25 10:14:39;;;;;;;81.50;69.20;;;;;;;18.25;46.74;100047.44;5029565;28;20463;-68
2021/09/25 10:17:10;;;;;;;105.40;96.63;;;;;;;18.32;46.44;100053.88;5029010;28;20935;-67
2021/09/25 10:19:40;;;;;;;76.40;69.67;;;;;;;18.35;46.89;100058.13;5027959;28;20449;-67
2021/09/25 10:22:12;;;;;;;78.47;72.30;;;;;;;18.37;44.84;100062.41;5029131;28;20491;-67
2021/09/25 10:24:45;;;;;;;104.23;97.57;;;;;;;18.38;46.71;100068.69;5027396;28;20489;-69
2021/09/25 10:27:15;;;;;;;109.77;102.80;;;;;;;18.49;46.77;100065.63;5029787;28;20452;-68
2021/09/25 10:29:45;;;;;;;61.50;57.17;;;;;;;18.49;45.79;100065.63;5027571;28;20460;-68
2021/09/25 10:32:21;;;;;;;60.30;53.23;;;;;;;18.49;46.23;100071.06;5028518;28;20586;-69
2021/09/25 10:35:04;;;;;;;72.47;65.00;;;;;;;18.14;45.31;100029.63;5027502;28;20458;-68
2021/09/25 10:37:35;;;;;;;212.90;60.27;;;;;;;18.52;47.41;100068.00;5027996;28;20446;-68
2021/09/25 10:40:20;;;;;;;198.60;55.07;;;;;;;18.63;46.92;100064.09;5024604;28;21007;-68
2021/09/25 10:42:52;;;;;;;202.37;61.40;;;;;;;18.78;45.84;100065.94;5044154;28;20489;-67
2021/09/25 10:45:25;;;;;;;182.37;55.50;;;;;;;18.80;45.77;100069.34;5025026;28;20461;-68
2021/09/25 10:48:13;;;;;;;165.27;45.47;;;;;;;18.85;46.27;100075.09;5028640;28;20455;-68
2021/09/25 10:50:47;;;;;;;169.73;49.53;;;;;;;18.84;45.51;100069.84;5029918;28;20455;-67
2021/09/25 10:53:17;;;;;;;144.53;47.13;;;;;;;18.89;46.37;100087.34;5029867;28;20212;-69
2021/09/25 10:55:47;;;;;;;176.57;49.63;;;;;;;19.12;45.51;100090.16;5020925;28;20217;-66
2021/09/25 10:58:19;;;;;;;201.57;59.77;;;;;;;19.19;45.95;100091.16;5016276;28;20450;-67
2021/09/25 11:00:54;;;;;;;212.67;60.07;;;;;;;19.27;45.72;100097.59;5043619;28;20463;-67
2021/09/25 11:03:59;;;;;;;188.27;60.37;;;;;;;19.41;44.67;100110.47;5026329;28;20561;-67
2021/09/25 11:06:32;;;;;;;218.47;76.00;;;;;;;19.49;44.68;100114.00;5015266;28;20808;-67
2021/09/25 11:09:04;;;;;;;219.60;78.87;;;;;;;19.51;43.35;100122.84;5026606;28;20460;-67
2021/09/25 11:11:36;;;;;;;187.73;47.83;;;;;;;19.51;42.30;100125.56;5023951;28;20715;-68
2021/09/25 11:14:12;;;;;;;195.73;49.77;;;;;;;19.71;43.14;100133.38;5026204;28;20224;-68
2021/09/25 11:16:45;;;;;;;177.20;51.53;;;;;;;19.91;43.73;100133.78;5024867;28;20224;-68
2021/09/25 11:19:43;;;;;;;187.10;56.30;;;;;;;19.90;41.53;100138.38;5024129;28;20331;-67
2021/09/25 11:22:19;;;;;;;189.87;63.20;;;;;;;20.13;42.70;100144.69;5009430;28;20695;-68